sensor_id;sensor_type;location;lat;lon;timestamp;temperature;humidity
69393;SHT31;56582;44.624;20.378;2023-08-12T00:00:06;18.97;75.48
69393;SHT31;56582;44.624;20.378;2023-08-12T00:02:41;18.91;76.13
69393;SHT31;56582;44.624;20.378;2023-08-12T00:05:08;18.88;76.65
69393;SHT31;56582;44.624;20.378;2023-08-12T00:07:34;18.78;75.41
69393;SHT31;56582;44.624;20.378;2023-08-12T00:10:01;18.63;76.41
69393;SHT31;56582;44.624;20.378;2023-08-12T00:12:28;18.52;76.17
69393;SHT31;56582;44.624;20.378;2023-08-12T00:14:54;18.46;77.69
69393;SHT31;56582;44.624;20.378;2023-08-12T00:17:20;18.50;78.47
69393;SHT31;56582;44.624;20.378;2023-08-12T00:19:45;18.59;78.86
69393;SHT31;56582;44.624;20.378;2023-08-12T00:22:11;18.60;78.69
69393;SHT31;56582;44.624;20.378;2023-08-12T00:24:38;18.73;78.47
69393;SHT31;56582;44.624;20.378;2023-08-12T00:27:04;18.80;78.79
69393;SHT31;56582;44.624;20.378;2023-08-12T00:29:29;18.83;78.26
69393;SHT31;56582;44.624;20.378;2023-08-12T00:31:54;18.86;77.93
69393;SHT31;56582;44.624;20.378;2023-08-12T00:34:21;18.86;77.20
69393;SHT31;56582;44.624;20.378;2023-08-12T00:36:47;18.80;77.30
69393;SHT31;56582;44.624;20.378;2023-08-12T00:39:16;18.73;77.20
69393;SHT31;56582;44.624;20.378;2023-08-12T00:41:41;18.68;76.70
69393;SHT31;56582;44.624;20.378;2023-08-12T00:44:07;18.64;77.59
69393;SHT31;56582;44.624;20.378;2023-08-12T00:46:34;18.60;76.49
69393;SHT31;56582;44.624;20.378;2023-08-12T00:49:00;18.61;77.94
69393;SHT31;56582;44.624;20.378;2023-08-12T00:51:25;18.61;77.76
69393;SHT31;56582;44.624;20.378;2023-08-12T00:53:52;18.63;78.54
69393;SHT31;56582;44.624;20.378;2023-08-12T00:56:18;18.61;78.62
69393;SHT31;56582;44.624;20.378;2023-08-12T00:58:44;18.61;78.16
69393;SHT31;56582;44.624;20.378;2023-08-12T01:01:11;18.63;78.18
69393;SHT31;56582;44.624;20.378;2023-08-12T01:03:37;18.60;78.07
69393;SHT31;56582;44.624;20.378;2023-08-12T01:06:02;18.60;77.98
69393;SHT31;56582;44.624;20.378;2023-08-12T01:08:30;18.56;78.36
69393;SHT31;56582;44.624;20.378;2023-08-12T01:11:06;18.59;78.95
69393;SHT31;56582;44.624;20.378;2023-08-12T01:16:08;18.61;78.84
69393;SHT31;56582;44.624;20.378;2023-08-12T01:18:34;18.63;78.62
69393;SHT31;56582;44.624;20.378;2023-08-12T01:21:00;18.70;79.10
69393;SHT31;56582;44.624;20.378;2023-08-12T01:23:29;18.64;78.16
69393;SHT31;56582;44.624;20.378;2023-08-12T01:25:54;18.57;78.00
69393;SHT31;56582;44.624;20.378;2023-08-12T01:28:20;18.49;78.66
69393;SHT31;56582;44.624;20.378;2023-08-12T01:30:55;18.49;79.15
69393;SHT31;56582;44.624;20.378;2023-08-12T01:33:28;18.49;78.42
69393;SHT31;56582;44.624;20.378;2023-08-12T01:36:12;18.46;78.53
69393;SHT31;56582;44.624;20.378;2023-08-12T01:38:38;18.46;79.04
69393;SHT31;56582;44.624;20.378;2023-08-12T01:41:07;18.52;79.17
69393;SHT31;56582;44.624;20.378;2023-08-12T01:43:34;18.53;79.91
69393;SHT31;56582;44.624;20.378;2023-08-12T01:46:00;18.50;80.22
69393;SHT31;56582;44.624;20.378;2023-08-12T01:48:25;18.50;79.06
69393;SHT31;56582;44.624;20.378;2023-08-12T01:50:51;18.43;79.12
69393;SHT31;56582;44.624;20.378;2023-08-12T01:53:16;18.40;79.14
69393;SHT31;56582;44.624;20.378;2023-08-12T01:55:43;18.45;79.06
69393;SHT31;56582;44.624;20.378;2023-08-12T01:58:09;18.46;78.81
69393;SHT31;56582;44.624;20.378;2023-08-12T02:00:34;18.47;78.65
69393;SHT31;56582;44.624;20.378;2023-08-12T02:03:00;18.52;78.19
69393;SHT31;56582;44.624;20.378;2023-08-12T02:05:25;18.55;78.26
69393;SHT31;56582;44.624;20.378;2023-08-12T02:07:51;18.45;77.03
69393;SHT31;56582;44.624;20.378;2023-08-12T02:10:16;18.42;78.26
69393;SHT31;56582;44.624;20.378;2023-08-12T02:12:41;18.40;78.21
69393;SHT31;56582;44.624;20.378;2023-08-12T02:15:07;18.35;77.89
69393;SHT31;56582;44.624;20.378;2023-08-12T02:17:33;18.40;78.38
69393;SHT31;56582;44.624;20.378;2023-08-12T02:19:58;18.45;78.23
69393;SHT31;56582;44.624;20.378;2023-08-12T02:22:24;18.47;78.14
69393;SHT31;56582;44.624;20.378;2023-08-12T02:24:50;18.47;77.60
69393;SHT31;56582;44.624;20.378;2023-08-12T02:27:15;18.52;78.05
69393;SHT31;56582;44.624;20.378;2023-08-12T02:29:41;18.53;77.93
69393;SHT31;56582;44.624;20.378;2023-08-12T02:32:06;18.45;76.66
69393;SHT31;56582;44.624;20.378;2023-08-12T02:34:32;18.28;76.44
69393;SHT31;56582;44.624;20.378;2023-08-12T02:36:57;18.18;78.52
69393;SHT31;56582;44.624;20.378;2023-08-12T02:39:22;18.24;78.55
69393;SHT31;56582;44.624;20.378;2023-08-12T02:41:48;18.30;78.68
69393;SHT31;56582;44.624;20.378;2023-08-12T02:44:14;18.33;78.32
69393;SHT31;56582;44.624;20.378;2023-08-12T02:46:39;18.39;78.45
69393;SHT31;56582;44.624;20.378;2023-08-12T02:49:05;18.43;78.68
69393;SHT31;56582;44.624;20.378;2023-08-12T02:51:30;18.46;78.78
69393;SHT31;56582;44.624;20.378;2023-08-12T02:53:56;18.36;76.27
69393;SHT31;56582;44.624;20.378;2023-08-12T02:56:21;18.21;76.89
69393;SHT31;56582;44.624;20.378;2023-08-12T02:58:46;18.21;78.47
69393;SHT31;56582;44.624;20.378;2023-08-12T03:01:12;18.25;78.63
69393;SHT31;56582;44.624;20.378;2023-08-12T03:03:38;18.21;78.16
69393;SHT31;56582;44.624;20.378;2023-08-12T03:06:04;18.15;78.11
69393;SHT31;56582;44.624;20.378;2023-08-12T03:08:30;18.15;78.76
69393;SHT31;56582;44.624;20.378;2023-08-12T03:11:02;18.16;78.94
69393;SHT31;56582;44.624;20.378;2023-08-12T03:13:28;18.25;79.15
69393;SHT31;56582;44.624;20.378;2023-08-12T03:15:54;18.26;78.80
69393;SHT31;56582;44.624;20.378;2023-08-12T03:18:20;18.32;78.86
69393;SHT31;56582;44.624;20.378;2023-08-12T03:20:46;18.36;78.81
69393;SHT31;56582;44.624;20.378;2023-08-12T03:23:11;18.37;78.30
69393;SHT31;56582;44.624;20.378;2023-08-12T03:25:37;18.37;78.67
69393;SHT31;56582;44.624;20.378;2023-08-12T03:28:02;18.36;78.26
69393;SHT31;56582;44.624;20.378;2023-08-12T03:30:28;18.30;77.68
69393;SHT31;56582;44.624;20.378;2023-08-12T03:32:53;18.22;77.92
69393;SHT31;56582;44.624;20.378;2023-08-12T03:35:19;18.05;76.84
69393;SHT31;56582;44.624;20.378;2023-08-12T03:37:44;17.81;77.18
69393;SHT31;56582;44.624;20.378;2023-08-12T03:40:10;17.61;76.62
69393;SHT31;56582;44.624;20.378;2023-08-12T03:42:36;17.24;78.41
69393;SHT31;56582;44.624;20.378;2023-08-12T03:45:01;17.40;79.79
69393;SHT31;56582;44.624;20.378;2023-08-12T03:47:27;17.51;79.83
69393;SHT31;56582;44.624;20.378;2023-08-12T03:49:52;17.60;78.89
69393;SHT31;56582;44.624;20.378;2023-08-12T03:52:18;17.58;78.34
69393;SHT31;56582;44.624;20.378;2023-08-12T03:54:43;17.57;78.14
69393;SHT31;56582;44.624;20.378;2023-08-12T03:57:10;17.58;78.00
69393;SHT31;56582;44.624;20.378;2023-08-12T03:59:35;17.53;77.60
69393;SHT31;56582;44.624;20.378;2023-08-12T04:02:01;17.53;78.70
69393;SHT31;56582;44.624;20.378;2023-08-12T04:04:27;17.60;79.14
69393;SHT31;56582;44.624;20.378;2023-08-12T04:06:53;17.64;78.81
69393;SHT31;56582;44.624;20.378;2023-08-12T04:09:18;17.70;79.10
69393;SHT31;56582;44.624;20.378;2023-08-12T04:11:45;17.75;79.58
69393;SHT31;56582;44.624;20.378;2023-08-12T04:14:11;17.77;79.25
69393;SHT31;56582;44.624;20.378;2023-08-12T04:16:37;17.81;79.37
69393;SHT31;56582;44.624;20.378;2023-08-12T04:19:02;17.81;79.44
69393;SHT31;56582;44.624;20.378;2023-08-12T04:21:28;17.82;79.39
69393;SHT31;56582;44.624;20.378;2023-08-12T04:23:53;17.79;79.45
69393;SHT31;56582;44.624;20.378;2023-08-12T04:26:19;17.79;79.15
69393;SHT31;56582;44.624;20.378;2023-08-12T04:28:44;17.54;79.18
69393;SHT31;56582;44.624;20.378;2023-08-12T04:31:10;17.57;78.77
69393;SHT31;56582;44.624;20.378;2023-08-12T04:33:35;17.63;80.01
69393;SHT31;56582;44.624;20.378;2023-08-12T04:36:00;18.04;81.06
69393;SHT31;56582;44.624;20.378;2023-08-12T04:38:26;18.52;79.31
69393;SHT31;56582;44.624;20.378;2023-08-12T04:40:55;18.95;77.57
69393;SHT31;56582;44.624;20.378;2023-08-12T04:43:20;19.29;76.30
69393;SHT31;56582;44.624;20.378;2023-08-12T04:45:46;19.55;75.48
69393;SHT31;56582;44.624;20.378;2023-08-12T04:48:12;19.77;74.40
69393;SHT31;56582;44.624;20.378;2023-08-12T04:50:38;19.98;73.57
69393;SHT31;56582;44.624;20.378;2023-08-12T04:53:04;20.16;72.79
69393;SHT31;56582;44.624;20.378;2023-08-12T04:55:30;20.31;72.19
69393;SHT31;56582;44.624;20.378;2023-08-12T04:57:55;20.45;71.87
69393;SHT31;56582;44.624;20.378;2023-08-12T05:00:21;20.56;71.44
69393;SHT31;56582;44.624;20.378;2023-08-12T05:02:47;20.69;70.95
69393;SHT31;56582;44.624;20.378;2023-08-12T05:05:12;20.81;70.86
69393;SHT31;56582;44.624;20.378;2023-08-12T05:07:38;20.95;70.30
69393;SHT31;56582;44.624;20.378;2023-08-12T05:10:04;21.06;70.18
69393;SHT31;56582;44.624;20.378;2023-08-12T05:12:29;21.22;70.05
69393;SHT31;56582;44.624;20.378;2023-08-12T05:14:55;21.33;69.83
69393;SHT31;56582;44.624;20.378;2023-08-12T05:17:20;21.43;69.47
69393;SHT31;56582;44.624;20.378;2023-08-12T05:19:46;21.53;69.26
69393;SHT31;56582;44.624;20.378;2023-08-12T05:22:12;21.61;69.16
69393;SHT31;56582;44.624;20.378;2023-08-12T05:24:37;21.74;68.80
69393;SHT31;56582;44.624;20.378;2023-08-12T05:27:03;21.82;68.73
69393;SHT31;56582;44.624;20.378;2023-08-12T05:29:30;21.91;68.71
69393;SHT31;56582;44.624;20.378;2023-08-12T05:31:55;22.01;69.02
69393;SHT31;56582;44.624;20.378;2023-08-12T05:34:21;22.09;68.48
69393;SHT31;56582;44.624;20.378;2023-08-12T05:36:46;22.19;69.62
69393;SHT31;56582;44.624;20.378;2023-08-12T05:39:12;22.32;69.44
69393;SHT31;56582;44.624;20.378;2023-08-12T05:41:37;22.36;68.87
69393;SHT31;56582;44.624;20.378;2023-08-12T05:44:03;22.43;68.78
69393;SHT31;56582;44.624;20.378;2023-08-12T05:46:29;22.50;68.58
69393;SHT31;56582;44.624;20.378;2023-08-12T05:48:55;22.56;69.23
69393;SHT31;56582;44.624;20.378;2023-08-12T05:51:20;22.71;68.37
69393;SHT31;56582;44.624;20.378;2023-08-12T05:53:46;22.86;67.33
69393;SHT31;56582;44.624;20.378;2023-08-12T05:56:11;22.94;66.87
69393;SHT31;56582;44.624;20.378;2023-08-12T05:58:37;23.05;66.48
69393;SHT31;56582;44.624;20.378;2023-08-12T06:01:02;23.12;65.90
69393;SHT31;56582;44.624;20.378;2023-08-12T06:03:28;23.18;65.53
69393;SHT31;56582;44.624;20.378;2023-08-12T06:05:53;23.18;64.58
69393;SHT31;56582;44.624;20.378;2023-08-12T06:08:19;23.22;65.01
69393;SHT31;56582;44.624;20.378;2023-08-12T06:10:44;23.35;64.62
69393;SHT31;56582;44.624;20.378;2023-08-12T06:13:10;23.43;64.45
69393;SHT31;56582;44.624;20.378;2023-08-12T06:15:35;23.48;64.23
69393;SHT31;56582;44.624;20.378;2023-08-12T06:18:01;23.51;64.20
69393;SHT31;56582;44.624;20.378;2023-08-12T06:20:27;23.48;64.61
69393;SHT31;56582;44.624;20.378;2023-08-12T06:22:53;23.66;65.89
69393;SHT31;56582;44.624;20.378;2023-08-12T06:25:19;23.70;65.12
69393;SHT31;56582;44.624;20.378;2023-08-12T06:27:45;23.73;64.03
69393;SHT31;56582;44.624;20.378;2023-08-12T06:30:11;23.59;62.70
69393;SHT31;56582;44.624;20.378;2023-08-12T06:32:37;23.35;62.74
69393;SHT31;56582;44.624;20.378;2023-08-12T06:35:03;23.42;64.48
69393;SHT31;56582;44.624;20.378;2023-08-12T06:37:28;23.32;64.78
69393;SHT31;56582;44.624;20.378;2023-08-12T06:39:54;23.22;64.38
69393;SHT31;56582;44.624;20.378;2023-08-12T06:42:20;22.84;63.21
69393;SHT31;56582;44.624;20.378;2023-08-12T06:44:49;22.30;66.10
69393;SHT31;56582;44.624;20.378;2023-08-12T06:47:15;21.78;67.81
69393;SHT31;56582;44.624;20.378;2023-08-12T06:49:40;21.77;66.84
69393;SHT31;56582;44.624;20.378;2023-08-12T06:52:05;21.74;68.15
69393;SHT31;56582;44.624;20.378;2023-08-12T06:54:31;22.05;68.28
69393;SHT31;56582;44.624;20.378;2023-08-12T06:56:57;21.47;67.82
69393;SHT31;56582;44.624;20.378;2023-08-12T06:59:22;21.75;69.16
69393;SHT31;56582;44.624;20.378;2023-08-12T07:01:48;22.05;69.09
69393;SHT31;56582;44.624;20.378;2023-08-12T07:04:13;21.71;68.81
69393;SHT31;56582;44.624;20.378;2023-08-12T07:06:39;21.81;68.40
69393;SHT31;56582;44.624;20.378;2023-08-12T07:09:04;21.61;68.23
69393;SHT31;56582;44.624;20.378;2023-08-12T07:11:30;21.36;68.62
69393;SHT31;56582;44.624;20.378;2023-08-12T07:13:55;21.23;68.86
69393;SHT31;56582;44.624;20.378;2023-08-12T07:16:20;21.62;69.27
69393;SHT31;56582;44.624;20.378;2023-08-12T07:18:46;21.79;69.12
69393;SHT31;56582;44.624;20.378;2023-08-12T07:21:11;21.94;69.36
69393;SHT31;56582;44.624;20.378;2023-08-12T07:23:37;21.50;68.87
69393;SHT31;56582;44.624;20.378;2023-08-12T07:26:02;21.60;69.38
69393;SHT31;56582;44.624;20.378;2023-08-12T07:28:28;21.74;68.09
69393;SHT31;56582;44.624;20.378;2023-08-12T07:30:53;22.02;68.57
69393;SHT31;56582;44.624;20.378;2023-08-12T07:33:19;22.49;68.70
69393;SHT31;56582;44.624;20.378;2023-08-12T07:35:46;22.63;68.61
69393;SHT31;56582;44.624;20.378;2023-08-12T07:38:11;22.25;68.14
69393;SHT31;56582;44.624;20.378;2023-08-12T07:40:37;22.37;67.53
69393;SHT31;56582;44.624;20.378;2023-08-12T07:43:02;22.47;67.37
69393;SHT31;56582;44.624;20.378;2023-08-12T07:45:28;22.02;67.89
69393;SHT31;56582;44.624;20.378;2023-08-12T07:47:54;22.26;68.38
69393;SHT31;56582;44.624;20.378;2023-08-12T07:50:19;22.54;67.92
69393;SHT31;56582;44.624;20.378;2023-08-12T07:52:45;22.68;68.53
69393;SHT31;56582;44.624;20.378;2023-08-12T07:55:11;22.76;66.97
69393;SHT31;56582;44.624;20.378;2023-08-12T07:57:37;22.50;66.69
69393;SHT31;56582;44.624;20.378;2023-08-12T08:00:03;22.46;67.69
69393;SHT31;56582;44.624;20.378;2023-08-12T08:02:29;22.86;65.09
69393;SHT31;56582;44.624;20.378;2023-08-12T08:04:54;22.59;68.85
69393;SHT31;56582;44.624;20.378;2023-08-12T08:07:19;22.70;68.51
69393;SHT31;56582;44.624;20.378;2023-08-12T08:09:45;23.03;68.28
69393;SHT31;56582;44.624;20.378;2023-08-12T08:12:10;23.31;67.42
69393;SHT31;56582;44.624;20.378;2023-08-12T08:14:38;22.61;67.49
69393;SHT31;56582;44.624;20.378;2023-08-12T08:17:04;22.57;68.56
69393;SHT31;56582;44.624;20.378;2023-08-12T08:19:30;22.76;67.80
69393;SHT31;56582;44.624;20.378;2023-08-12T08:21:57;22.81;67.71
69393;SHT31;56582;44.624;20.378;2023-08-12T08:24:22;23.24;68.04
69393;SHT31;56582;44.624;20.378;2023-08-12T08:26:48;23.55;66.36
69393;SHT31;56582;44.624;20.378;2023-08-12T08:29:13;23.21;65.80
69393;SHT31;56582;44.624;20.378;2023-08-12T08:31:39;23.43;66.94
69393;SHT31;56582;44.624;20.378;2023-08-12T08:34:04;23.67;65.21
69393;SHT31;56582;44.624;20.378;2023-08-12T08:36:30;23.80;65.30
69393;SHT31;56582;44.624;20.378;2023-08-12T08:38:55;23.59;64.65
69393;SHT31;56582;44.624;20.378;2023-08-12T08:41:21;23.72;65.23
69393;SHT31;56582;44.624;20.378;2023-08-12T08:43:48;23.93;65.70
69393;SHT31;56582;44.624;20.378;2023-08-12T08:46:16;23.90;65.30
69393;SHT31;56582;44.624;20.378;2023-08-12T08:48:43;23.67;61.52
69393;SHT31;56582;44.624;20.378;2023-08-12T08:51:09;23.59;61.91
69393;SHT31;56582;44.624;20.378;2023-08-12T08:53:39;23.61;63.41
69393;SHT31;56582;44.624;20.378;2023-08-12T08:56:06;23.92;62.47
69393;SHT31;56582;44.624;20.378;2023-08-12T08:58:32;24.16;63.43
69393;SHT31;56582;44.624;20.378;2023-08-12T09:00:57;24.42;63.22
69393;SHT31;56582;44.624;20.378;2023-08-12T09:03:24;23.97;59.61
69393;SHT31;56582;44.624;20.378;2023-08-12T09:05:51;24.06;58.71
69393;SHT31;56582;44.624;20.378;2023-08-12T09:08:18;24.21;59.05
69393;SHT31;56582;44.624;20.378;2023-08-12T09:10:44;24.20;60.59
69393;SHT31;56582;44.624;20.378;2023-08-12T09:13:11;24.35;60.63
69393;SHT31;56582;44.624;20.378;2023-08-12T09:15:36;24.40;58.93
69393;SHT31;56582;44.624;20.378;2023-08-12T09:18:05;24.57;60.70
69393;SHT31;56582;44.624;20.378;2023-08-12T09:20:35;24.90;58.59
69393;SHT31;56582;44.624;20.378;2023-08-12T09:23:01;24.93;57.40
69393;SHT31;56582;44.624;20.378;2023-08-12T09:25:31;24.83;53.01
69393;SHT31;56582;44.624;20.378;2023-08-12T09:28:00;25.02;53.21
69393;SHT31;56582;44.624;20.378;2023-08-12T09:30:28;25.20;53.88
69393;SHT31;56582;44.624;20.378;2023-08-12T09:33:01;24.71;55.63
69393;SHT31;56582;44.624;20.378;2023-08-12T09:35:34;25.07;54.94
69393;SHT31;56582;44.624;20.378;2023-08-12T09:38:04;25.07;54.39
69393;SHT31;56582;44.624;20.378;2023-08-12T09:40:40;25.47;55.60
69393;SHT31;56582;44.624;20.378;2023-08-12T09:43:06;25.19;52.91
69393;SHT31;56582;44.624;20.378;2023-08-12T09:45:33;25.05;52.69
69393;SHT31;56582;44.624;20.378;2023-08-12T09:47:59;25.09;54.19
69393;SHT31;56582;44.624;20.378;2023-08-12T09:50:35;25.16;53.70
69393;SHT31;56582;44.624;20.378;2023-08-12T09:53:02;25.50;54.36
69393;SHT31;56582;44.624;20.378;2023-08-12T09:55:29;25.73;53.08
69393;SHT31;56582;44.624;20.378;2023-08-12T09:57:58;25.28;55.31
69393;SHT31;56582;44.624;20.378;2023-08-12T10:00:27;25.47;55.79
69393;SHT31;56582;44.624;20.378;2023-08-12T10:02:52;25.68;52.72
69393;SHT31;56582;44.624;20.378;2023-08-12T10:05:22;25.80;57.52
69393;SHT31;56582;44.624;20.378;2023-08-12T10:07:54;25.67;54.44
69393;SHT31;56582;44.624;20.378;2023-08-12T10:10:22;25.77;53.28
69393;SHT31;56582;44.624;20.378;2023-08-12T10:12:51;25.78;55.03
69393;SHT31;56582;44.624;20.378;2023-08-12T10:15:17;26.09;54.21
69393;SHT31;56582;44.624;20.378;2023-08-12T10:17:58;25.67;46.91
69393;SHT31;56582;44.624;20.378;2023-08-12T10:20:29;25.60;48.35
69393;SHT31;56582;44.624;20.378;2023-08-12T10:23:00;25.70;48.26
69393;SHT31;56582;44.624;20.378;2023-08-12T10:25:31;25.43;46.49
69393;SHT31;56582;44.624;20.378;2023-08-12T10:27:57;25.65;50.01
69393;SHT31;56582;44.624;20.378;2023-08-12T10:30:24;25.91;51.02
69393;SHT31;56582;44.624;20.378;2023-08-12T10:32:57;26.11;49.73
69393;SHT31;56582;44.624;20.378;2023-08-12T10:35:43;26.32;49.95
69393;SHT31;56582;44.624;20.378;2023-08-12T10:38:11;26.57;49.07
69393;SHT31;56582;44.624;20.378;2023-08-12T10:40:36;26.49;45.71
69393;SHT31;56582;44.624;20.378;2023-08-12T10:43:02;26.44;45.85
69393;SHT31;56582;44.624;20.378;2023-08-12T10:45:41;26.46;44.59
69393;SHT31;56582;44.624;20.378;2023-08-12T10:50:34;26.76;48.05
69393;SHT31;56582;44.624;20.378;2023-08-12T10:53:23;27.02;49.29
69393;SHT31;56582;44.624;20.378;2023-08-12T10:56:04;27.08;46.65
69393;SHT31;56582;44.624;20.378;2023-08-12T10:58:50;26.86;44.51
69393;SHT31;56582;44.624;20.378;2023-08-12T11:01:19;26.64;44.38
69393;SHT31;56582;44.624;20.378;2023-08-12T11:03:45;26.93;49.78
69393;SHT31;56582;44.624;20.378;2023-08-12T11:06:11;26.93;47.73
69393;SHT31;56582;44.624;20.378;2023-08-12T11:08:36;26.87;46.25
69393;SHT31;56582;44.624;20.378;2023-08-12T11:11:22;26.67;43.74
69393;SHT31;56582;44.624;20.378;2023-08-12T11:13:53;26.57;49.16
69393;SHT31;56582;44.624;20.378;2023-08-12T11:16:31;26.57;45.26
69393;SHT31;56582;44.624;20.378;2023-08-12T11:18:58;26.63;49.26
69393;SHT31;56582;44.624;20.378;2023-08-12T11:21:25;26.77;47.93
69393;SHT31;56582;44.624;20.378;2023-08-12T11:23:51;27.02;48.88
69393;SHT31;56582;44.624;20.378;2023-08-12T11:26:19;27.11;50.97
69393;SHT31;56582;44.624;20.378;2023-08-12T11:28:46;27.24;46.60
69393;SHT31;56582;44.624;20.378;2023-08-12T11:31:12;27.34;45.85
69393;SHT31;56582;44.624;20.378;2023-08-12T11:33:37;26.63;46.85
69393;SHT31;56582;44.624;20.378;2023-08-12T11:36:03;26.97;49.34
69393;SHT31;56582;44.624;20.378;2023-08-12T11:38:28;26.72;46.15
69393;SHT31;56582;44.624;20.378;2023-08-12T11:40:55;26.47;50.05
69393;SHT31;56582;44.624;20.378;2023-08-12T11:43:21;26.81;47.43
69393;SHT31;56582;44.624;20.378;2023-08-12T11:45:47;26.94;46.34
69393;SHT31;56582;44.624;20.378;2023-08-12T11:48:12;26.86;45.45
69393;SHT31;56582;44.624;20.378;2023-08-12T11:50:38;26.86;44.86
69393;SHT31;56582;44.624;20.378;2023-08-12T11:53:04;26.90;48.29
69393;SHT31;56582;44.624;20.378;2023-08-12T11:55:30;26.98;46.49
69393;SHT31;56582;44.624;20.378;2023-08-12T11:57:55;27.00;46.57
69393;SHT31;56582;44.624;20.378;2023-08-12T12:00:25;26.83;43.78
69393;SHT31;56582;44.624;20.378;2023-08-12T12:02:52;26.94;44.96
69393;SHT31;56582;44.624;20.378;2023-08-12T12:05:22;27.07;46.86
69393;SHT31;56582;44.624;20.378;2023-08-12T12:07:49;27.07;46.27
69393;SHT31;56582;44.624;20.378;2023-08-12T12:10:25;27.20;50.84
69393;SHT31;56582;44.624;20.378;2023-08-12T12:12:50;27.22;45.13
69393;SHT31;56582;44.624;20.378;2023-08-12T12:15:16;27.32;45.66
69393;SHT31;56582;44.624;20.378;2023-08-12T12:17:41;27.48;47.49
69393;SHT31;56582;44.624;20.378;2023-08-12T12:20:08;27.60;47.22
69393;SHT31;56582;44.624;20.378;2023-08-12T12:22:37;27.28;47.28
69393;SHT31;56582;44.624;20.378;2023-08-12T12:25:07;27.39;45.67
69393;SHT31;56582;44.624;20.378;2023-08-12T12:27:34;27.31;48.54
69393;SHT31;56582;44.624;20.378;2023-08-12T12:30:00;27.52;49.37
69393;SHT31;56582;44.624;20.378;2023-08-12T12:32:26;27.82;50.45
69393;SHT31;56582;44.624;20.378;2023-08-12T12:34:52;27.58;46.52
69393;SHT31;56582;44.624;20.378;2023-08-12T12:37:18;27.21;48.34
69393;SHT31;56582;44.624;20.378;2023-08-12T12:39:44;27.35;50.47
69393;SHT31;56582;44.624;20.378;2023-08-12T12:42:10;27.52;49.17
69393;SHT31;56582;44.624;20.378;2023-08-12T12:44:36;27.21;47.58
69393;SHT31;56582;44.624;20.378;2023-08-12T12:47:02;27.02;46.50
69393;SHT31;56582;44.624;20.378;2023-08-12T12:49:28;27.16;49.38
69393;SHT31;56582;44.624;20.378;2023-08-12T12:51:54;27.07;47.96
69393;SHT31;56582;44.624;20.378;2023-08-12T12:54:19;27.22;48.65
69393;SHT31;56582;44.624;20.378;2023-08-12T12:56:45;27.15;44.22
69393;SHT31;56582;44.624;20.378;2023-08-12T12:59:10;27.32;45.55
69393;SHT31;56582;44.624;20.378;2023-08-12T13:01:36;26.98;49.26
69393;SHT31;56582;44.624;20.378;2023-08-12T13:04:02;27.15;47.35
69393;SHT31;56582;44.624;20.378;2023-08-12T13:06:27;27.21;45.13
69393;SHT31;56582;44.624;20.378;2023-08-12T13:08:53;26.64;46.60
69393;SHT31;56582;44.624;20.378;2023-08-12T13:11:18;26.91;45.69
69393;SHT31;56582;44.624;20.378;2023-08-12T13:13:44;26.94;45.71
69393;SHT31;56582;44.624;20.378;2023-08-12T13:16:09;27.10;44.34
69393;SHT31;56582;44.624;20.378;2023-08-12T13:18:35;27.14;44.86
69393;SHT31;56582;44.624;20.378;2023-08-12T13:21:02;27.18;43.22
69393;SHT31;56582;44.624;20.378;2023-08-12T13:23:27;27.38;45.86
69393;SHT31;56582;44.624;20.378;2023-08-12T13:25:53;27.29;42.54
69393;SHT31;56582;44.624;20.378;2023-08-12T13:28:18;27.28;44.49
69393;SHT31;56582;44.624;20.378;2023-08-12T13:30:45;27.49;44.69
69393;SHT31;56582;44.624;20.378;2023-08-12T13:33:11;27.55;46.15
69393;SHT31;56582;44.624;20.378;2023-08-12T13:35:36;27.56;48.85
69393;SHT31;56582;44.624;20.378;2023-08-12T13:38:02;27.55;46.33
69393;SHT31;56582;44.624;20.378;2023-08-12T13:40:27;27.66;46.05
69393;SHT31;56582;44.624;20.378;2023-08-12T13:42:53;27.56;42.79
69393;SHT31;56582;44.624;20.378;2023-08-12T13:45:18;27.62;43.91
69393;SHT31;56582;44.624;20.378;2023-08-12T13:47:44;27.71;45.59
69393;SHT31;56582;44.624;20.378;2023-08-12T13:50:10;27.85;44.71
69393;SHT31;56582;44.624;20.378;2023-08-12T13:52:35;27.00;43.78
69393;SHT31;56582;44.624;20.378;2023-08-12T13:55:01;27.12;44.42
69393;SHT31;56582;44.624;20.378;2023-08-12T13:57:27;26.79;44.52
69393;SHT31;56582;44.624;20.378;2023-08-12T13:59:52;26.98;43.84
69393;SHT31;56582;44.624;20.378;2023-08-12T14:02:18;27.12;45.10
69393;SHT31;56582;44.624;20.378;2023-08-12T14:04:43;27.48;46.67
69393;SHT31;56582;44.624;20.378;2023-08-12T14:07:09;27.53;43.80
69393;SHT31;56582;44.624;20.378;2023-08-12T14:09:34;27.35;47.96
69393;SHT31;56582;44.624;20.378;2023-08-12T14:12:00;27.45;44.79
69393;SHT31;56582;44.624;20.378;2023-08-12T14:14:26;27.14;43.56
69393;SHT31;56582;44.624;20.378;2023-08-12T14:16:54;27.27;45.26
69393;SHT31;56582;44.624;20.378;2023-08-12T14:19:20;27.65;48.26
69393;SHT31;56582;44.624;20.378;2023-08-12T14:21:46;27.92;43.77
69393;SHT31;56582;44.624;20.378;2023-08-12T14:24:11;27.92;47.92
69393;SHT31;56582;44.624;20.378;2023-08-12T14:26:38;27.83;44.19
69393;SHT31;56582;44.624;20.378;2023-08-12T14:29:04;28.01;47.10
69393;SHT31;56582;44.624;20.378;2023-08-12T14:31:29;28.24;46.60
69393;SHT31;56582;44.624;20.378;2023-08-12T14:33:55;28.40;47.62
69393;SHT31;56582;44.624;20.378;2023-08-12T14:36:20;28.20;47.82
69393;SHT31;56582;44.624;20.378;2023-08-12T14:38:46;27.89;48.68
69393;SHT31;56582;44.624;20.378;2023-08-12T14:41:11;27.89;47.86
69393;SHT31;56582;44.624;20.378;2023-08-12T14:43:36;27.86;49.24
69393;SHT31;56582;44.624;20.378;2023-08-12T14:46:02;27.69;45.70
69393;SHT31;56582;44.624;20.378;2023-08-12T14:48:27;27.58;49.67
69393;SHT31;56582;44.624;20.378;2023-08-12T14:50:53;27.42;52.83
69393;SHT31;56582;44.624;20.378;2023-08-12T14:53:18;27.32;56.50
69393;SHT31;56582;44.624;20.378;2023-08-12T14:55:44;27.35;50.84
69393;SHT31;56582;44.624;20.378;2023-08-12T14:58:09;27.46;50.16
69393;SHT31;56582;44.624;20.378;2023-08-12T15:00:35;27.48;49.71
69393;SHT31;56582;44.624;20.378;2023-08-12T15:03:01;27.48;50.32
69393;SHT31;56582;44.624;20.378;2023-08-12T15:05:30;27.59;48.56
69393;SHT31;56582;44.624;20.378;2023-08-12T15:08:01;27.58;51.93
69393;SHT31;56582;44.624;20.378;2023-08-12T15:10:29;27.38;47.49
69393;SHT31;56582;44.624;20.378;2023-08-12T15:12:55;27.24;51.19
69393;SHT31;56582;44.624;20.378;2023-08-12T15:15:21;27.22;50.05